sensor_id;sensor_type;location;lat;lon;timestamp;P1;durP1;ratioP1;P2;durP2;ratioP2
1366;SDS011;16877;48.810;9.282;2022-12-29T00:01:41;3.97;;;2.13;;
1366;SDS011;16877;48.810;9.282;2022-12-29T00:04:23;3.37;;;1.63;;
1366;SDS011;16877;48.810;9.282;2022-12-29T00:06:52;4.40;;;2.10;;
1366;SDS011;16877;48.810;9.282;2022-12-29T00:09:34;4.27;;;1.87;;
1366;SDS011;16877;48.810;9.282;2022-12-29T00:12:19;8.90;;;1.97;;
1366;SDS011;16877;48.810;9.282;2022-12-29T00:14:47;4.67;;;1.80;;
1366;SDS011;16877;48.810;9.282;2022-12-29T00:17:31;4.27;;;1.70;;
1366;SDS011;16877;48.810;9.282;2022-12-29T00:20:01;3.40;;;1.67;;
1366;SDS011;16877;48.810;9.282;2022-12-29T00:23:00;3.77;;;2.00;;
1366;SDS011;16877;48.810;9.282;2022-12-29T00:25:45;4.60;;;1.83;;
1366;SDS011;16877;48.810;9.282;2022-12-29T00:28:31;2.97;;;1.53;;
1366;SDS011;16877;48.810;9.282;2022-12-29T00:31:16;4.13;;;1.73;;
1366;SDS011;16877;48.810;9.282;2022-12-29T00:34:01;3.30;;;1.83;;
1366;SDS011;16877;48.810;9.282;2022-12-29T00:36:48;4.63;;;2.00;;
1366;SDS011;16877;48.810;9.282;2022-12-29T00:39:45;4.20;;;1.70;;
1366;SDS011;16877;48.810;9.282;2022-12-29T00:42:43;3.57;;;2.03;;
1366;SDS011;16877;48.810;9.282;2022-12-29T00:45:30;2.67;;;1.70;;
1366;SDS011;16877;48.810;9.282;2022-12-29T00:48:23;3.33;;;1.80;;
1366;SDS011;16877;48.810;9.282;2022-12-29T00:51:23;4.67;;;2.00;;
1366;SDS011;16877;48.810;9.282;2022-12-29T00:54:08;4.20;;;2.00;;
1366;SDS011;16877;48.810;9.282;2022-12-29T00:56:51;2.97;;;2.07;;
1366;SDS011;16877;48.810;9.282;2022-12-29T00:59:37;3.70;;;1.60;;
1366;SDS011;16877;48.810;9.282;2022-12-29T01:02:08;5.03;;;1.63;;
1366;SDS011;16877;48.810;9.282;2022-12-29T01:04:36;3.33;;;1.60;;
1366;SDS011;16877;48.810;9.282;2022-12-29T01:07:04;3.53;;;1.93;;
1366;SDS011;16877;48.810;9.282;2022-12-29T01:09:34;3.60;;;1.70;;
1366;SDS011;16877;48.810;9.282;2022-12-29T01:12:19;2.57;;;1.60;;
1366;SDS011;16877;48.810;9.282;2022-12-29T01:15:05;3.20;;;1.43;;
1366;SDS011;16877;48.810;9.282;2022-12-29T01:17:36;3.50;;;1.83;;
1366;SDS011;16877;48.810;9.282;2022-12-29T01:20:03;3.73;;;1.97;;
1366;SDS011;16877;48.810;9.282;2022-12-29T01:22:32;3.00;;;1.83;;
1366;SDS011;16877;48.810;9.282;2022-12-29T01:25:00;3.03;;;1.50;;
1366;SDS011;16877;48.810;9.282;2022-12-29T01:27:42;3.50;;;1.70;;
1366;SDS011;16877;48.810;9.282;2022-12-29T01:30:10;2.60;;;1.70;;
1366;SDS011;16877;48.810;9.282;2022-12-29T01:32:40;3.90;;;1.73;;
1366;SDS011;16877;48.810;9.282;2022-12-29T01:35:08;3.93;;;2.23;;
1366;SDS011;16877;48.810;9.282;2022-12-29T01:37:36;4.30;;;1.90;;
1366;SDS011;16877;48.810;9.282;2022-12-29T01:40:04;3.03;;;1.87;;
1366;SDS011;16877;48.810;9.282;2022-12-29T01:42:34;4.23;;;1.90;;
1366;SDS011;16877;48.810;9.282;2022-12-29T01:45:02;3.60;;;2.10;;
1366;SDS011;16877;48.810;9.282;2022-12-29T01:47:36;7.70;;;2.20;;
1366;SDS011;16877;48.810;9.282;2022-12-29T01:50:09;3.23;;;1.90;;
1366;SDS011;16877;48.810;9.282;2022-12-29T01:52:41;4.43;;;1.53;;
1366;SDS011;16877;48.810;9.282;2022-12-29T01:55:14;3.30;;;1.77;;
1366;SDS011;16877;48.810;9.282;2022-12-29T01:57:43;4.67;;;2.00;;
1366;SDS011;16877;48.810;9.282;2022-12-29T02:00:14;5.10;;;2.00;;
1366;SDS011;16877;48.810;9.282;2022-12-29T02:02:42;3.80;;;1.87;;
1366;SDS011;16877;48.810;9.282;2022-12-29T02:05:16;2.70;;;1.70;;
1366;SDS011;16877;48.810;9.282;2022-12-29T02:07:48;3.30;;;1.67;;
1366;SDS011;16877;48.810;9.282;2022-12-29T02:10:18;3.97;;;1.90;;
1366;SDS011;16877;48.810;9.282;2022-12-29T02:12:47;4.30;;;2.20;;
1366;SDS011;16877;48.810;9.282;2022-12-29T02:15:15;2.50;;;1.33;;
1366;SDS011;16877;48.810;9.282;2022-12-29T02:17:48;9.60;;;1.60;;
1366;SDS011;16877;48.810;9.282;2022-12-29T02:20:37;2.80;;;1.50;;
1366;SDS011;16877;48.810;9.282;2022-12-29T02:23:31;2.83;;;1.40;;
1366;SDS011;16877;48.810;9.282;2022-12-29T02:26:40;3.23;;;1.60;;
1366;SDS011;16877;48.810;9.282;2022-12-29T02:29:36;3.60;;;1.43;;
1366;SDS011;16877;48.810;9.282;2022-12-29T02:32:25;3.13;;;1.60;;
1366;SDS011;16877;48.810;9.282;2022-12-29T02:35:01;3.80;;;1.50;;
1366;SDS011;16877;48.810;9.282;2022-12-29T02:37:39;2.53;;;1.53;;
1366;SDS011;16877;48.810;9.282;2022-12-29T02:40:18;2.53;;;1.47;;
1366;SDS011;16877;48.810;9.282;2022-12-29T02:42:51;4.90;;;1.40;;
1366;SDS011;16877;48.810;9.282;2022-12-29T02:45:28;3.50;;;1.87;;
1366;SDS011;16877;48.810;9.282;2022-12-29T02:48:04;3.53;;;1.77;;
1366;SDS011;16877;48.810;9.282;2022-12-29T02:50:37;3.47;;;1.40;;
1366;SDS011;16877;48.810;9.282;2022-12-29T02:53:09;4.20;;;1.20;;
1366;SDS011;16877;48.810;9.282;2022-12-29T02:55:46;3.67;;;1.43;;
1366;SDS011;16877;48.810;9.282;2022-12-29T02:58:17;3.47;;;1.67;;
1366;SDS011;16877;48.810;9.282;2022-12-29T03:00:53;2.90;;;1.43;;
1366;SDS011;16877;48.810;9.282;2022-12-29T03:03:39;3.60;;;1.50;;
1366;SDS011;16877;48.810;9.282;2022-12-29T03:09:08;3.10;;;1.43;;
1366;SDS011;16877;48.810;9.282;2022-12-29T03:11:50;4.00;;;1.50;;
1366;SDS011;16877;48.810;9.282;2022-12-29T03:14:38;3.43;;;1.50;;
1366;SDS011;16877;48.810;9.282;2022-12-29T03:17:35;3.43;;;1.20;;
1366;SDS011;16877;48.810;9.282;2022-12-29T03:20:26;2.20;;;1.30;;
1366;SDS011;16877;48.810;9.282;2022-12-29T03:23:18;3.40;;;1.80;;
1366;SDS011;16877;48.810;9.282;2022-12-29T03:26:03;3.60;;;1.53;;
1366;SDS011;16877;48.810;9.282;2022-12-29T03:28:55;2.57;;;1.10;;
1366;SDS011;16877;48.810;9.282;2022-12-29T03:31:27;2.90;;;1.57;;
1366;SDS011;16877;48.810;9.282;2022-12-29T03:34:10;3.93;;;1.47;;
1366;SDS011;16877;48.810;9.282;2022-12-29T03:36:57;4.33;;;1.30;;
1366;SDS011;16877;48.810;9.282;2022-12-29T03:39:29;3.33;;;1.50;;
1366;SDS011;16877;48.810;9.282;2022-12-29T03:41:59;3.60;;;1.30;;
1366;SDS011;16877;48.810;9.282;2022-12-29T03:44:33;2.90;;;1.37;;
1366;SDS011;16877;48.810;9.282;2022-12-29T03:47:02;2.50;;;1.13;;
1366;SDS011;16877;48.810;9.282;2022-12-29T03:49:30;2.40;;;1.20;;
1366;SDS011;16877;48.810;9.282;2022-12-29T03:52:06;4.07;;;1.60;;
1366;SDS011;16877;48.810;9.282;2022-12-29T03:54:33;5.60;;;1.50;;
1366;SDS011;16877;48.810;9.282;2022-12-29T03:57:01;6.00;;;1.73;;
1366;SDS011;16877;48.810;9.282;2022-12-29T03:59:29;2.57;;;1.33;;
1366;SDS011;16877;48.810;9.282;2022-12-29T04:01:57;2.50;;;1.33;;
1366;SDS011;16877;48.810;9.282;2022-12-29T04:04:25;1.90;;;1.00;;
1366;SDS011;16877;48.810;9.282;2022-12-29T04:06:53;2.33;;;1.10;;
1366;SDS011;16877;48.810;9.282;2022-12-29T04:09:22;2.80;;;1.40;;
1366;SDS011;16877;48.810;9.282;2022-12-29T04:11:49;2.67;;;1.50;;
1366;SDS011;16877;48.810;9.282;2022-12-29T04:14:17;2.30;;;1.40;;
1366;SDS011;16877;48.810;9.282;2022-12-29T04:16:44;5.33;;;1.30;;
1366;SDS011;16877;48.810;9.282;2022-12-29T04:19:13;4.27;;;1.50;;
1366;SDS011;16877;48.810;9.282;2022-12-29T04:21:41;3.50;;;1.30;;
1366;SDS011;16877;48.810;9.282;2022-12-29T04:24:26;2.23;;;1.00;;
1366;SDS011;16877;48.810;9.282;2022-12-29T04:30:33;2.23;;;1.33;;
1366;SDS011;16877;48.810;9.282;2022-12-29T04:33:17;2.47;;;1.43;;
1366;SDS011;16877;48.810;9.282;2022-12-29T04:36:00;2.43;;;1.17;;
1366;SDS011;16877;48.810;9.282;2022-12-29T04:38:29;2.60;;;1.50;;
1366;SDS011;16877;48.810;9.282;2022-12-29T04:41:14;3.27;;;1.20;;
1366;SDS011;16877;48.810;9.282;2022-12-29T04:46:45;3.07;;;1.30;;
1366;SDS011;16877;48.810;9.282;2022-12-29T04:49:38;3.50;;;1.67;;
1366;SDS011;16877;48.810;9.282;2022-12-29T04:52:20;4.03;;;1.13;;
1366;SDS011;16877;48.810;9.282;2022-12-29T04:55:12;6.63;;;2.03;;
1366;SDS011;16877;48.810;9.282;2022-12-29T04:57:49;2.73;;;1.40;;
1366;SDS011;16877;48.810;9.282;2022-12-29T05:00:18;3.03;;;1.70;;
1366;SDS011;16877;48.810;9.282;2022-12-29T05:02:50;4.13;;;1.67;;
1366;SDS011;16877;48.810;9.282;2022-12-29T05:05:18;3.50;;;1.47;;
1366;SDS011;16877;48.810;9.282;2022-12-29T05:08:00;4.53;;;1.30;;
1366;SDS011;16877;48.810;9.282;2022-12-29T05:10:29;2.70;;;1.30;;
1366;SDS011;16877;48.810;9.282;2022-12-29T05:12:58;3.77;;;1.40;;
1366;SDS011;16877;48.810;9.282;2022-12-29T05:15:41;2.03;;;1.30;;
1366;SDS011;16877;48.810;9.282;2022-12-29T05:18:12;4.43;;;2.00;;
1366;SDS011;16877;48.810;9.282;2022-12-29T05:20:40;2.67;;;1.40;;
1366;SDS011;16877;48.810;9.282;2022-12-29T05:23:22;4.00;;;1.90;;
1366;SDS011;16877;48.810;9.282;2022-12-29T05:26:04;2.63;;;1.60;;
1366;SDS011;16877;48.810;9.282;2022-12-29T05:28:34;3.20;;;1.97;;
1366;SDS011;16877;48.810;9.282;2022-12-29T05:31:02;2.87;;;1.57;;
1366;SDS011;16877;48.810;9.282;2022-12-29T05:33:30;2.60;;;1.30;;
1366;SDS011;16877;48.810;9.282;2022-12-29T05:36:02;5.70;;;2.10;;
1366;SDS011;16877;48.810;9.282;2022-12-29T05:38:30;2.70;;;1.33;;
1366;SDS011;16877;48.810;9.282;2022-12-29T05:40:58;3.60;;;1.60;;
1366;SDS011;16877;48.810;9.282;2022-12-29T05:43:42;2.37;;;1.17;;
1366;SDS011;16877;48.810;9.282;2022-12-29T05:46:10;2.83;;;1.73;;
1366;SDS011;16877;48.810;9.282;2022-12-29T05:48:39;2.70;;;1.60;;
1366;SDS011;16877;48.810;9.282;2022-12-29T05:51:06;3.10;;;1.80;;
1366;SDS011;16877;48.810;9.282;2022-12-29T05:53:34;2.80;;;1.63;;
1366;SDS011;16877;48.810;9.282;2022-12-29T05:56:02;3.80;;;1.70;;
1366;SDS011;16877;48.810;9.282;2022-12-29T05:58:30;2.10;;;1.30;;
1366;SDS011;16877;48.810;9.282;2022-12-29T06:01:00;2.93;;;1.50;;
1366;SDS011;16877;48.810;9.282;2022-12-29T06:03:28;2.83;;;1.90;;
1366;SDS011;16877;48.810;9.282;2022-12-29T06:05:56;2.70;;;1.33;;
1366;SDS011;16877;48.810;9.282;2022-12-29T06:08:30;3.57;;;1.90;;
1366;SDS011;16877;48.810;9.282;2022-12-29T06:10:59;2.70;;;1.70;;
1366;SDS011;16877;48.810;9.282;2022-12-29T06:13:27;2.80;;;1.60;;
1366;SDS011;16877;48.810;9.282;2022-12-29T06:16:14;2.33;;;1.40;;
1366;SDS011;16877;48.810;9.282;2022-12-29T06:18:42;2.17;;;1.20;;
1366;SDS011;16877;48.810;9.282;2022-12-29T06:21:10;2.57;;;1.47;;
1366;SDS011;16877;48.810;9.282;2022-12-29T06:23:46;2.70;;;1.50;;
1366;SDS011;16877;48.810;9.282;2022-12-29T06:26:15;3.37;;;1.60;;
1366;SDS011;16877;48.810;9.282;2022-12-29T06:28:42;3.77;;;1.67;;
1366;SDS011;16877;48.810;9.282;2022-12-29T06:31:13;3.80;;;1.87;;
1366;SDS011;16877;48.810;9.282;2022-12-29T06:33:43;4.10;;;2.10;;
1366;SDS011;16877;48.810;9.282;2022-12-29T06:36:11;2.23;;;1.13;;
1366;SDS011;16877;48.810;9.282;2022-12-29T06:38:40;3.23;;;1.60;;
1366;SDS011;16877;48.810;9.282;2022-12-29T06:41:13;3.33;;;2.00;;
1366;SDS011;16877;48.810;9.282;2022-12-29T06:43:40;5.33;;;1.67;;
1366;SDS011;16877;48.810;9.282;2022-12-29T06:46:14;2.43;;;1.30;;
1366;SDS011;16877;48.810;9.282;2022-12-29T06:48:50;3.67;;;2.00;;
1366;SDS011;16877;48.810;9.282;2022-12-29T06:51:43;4.27;;;1.50;;
1366;SDS011;16877;48.810;9.282;2022-12-29T06:54:11;4.67;;;1.67;;
1366;SDS011;16877;48.810;9.282;2022-12-29T06:56:53;2.37;;;1.40;;
1366;SDS011;16877;48.810;9.282;2022-12-29T06:59:32;7.43;;;1.90;;
1366;SDS011;16877;48.810;9.282;2022-12-29T07:02:15;4.20;;;1.60;;
1366;SDS011;16877;48.810;9.282;2022-12-29T07:04:50;3.10;;;1.67;;
1366;SDS011;16877;48.810;9.282;2022-12-29T07:07:48;3.47;;;1.67;;
1366;SDS011;16877;48.810;9.282;2022-12-29T07:11:01;3.27;;;2.00;;
1366;SDS011;16877;48.810;9.282;2022-12-29T07:13:54;2.03;;;1.30;;
1366;SDS011;16877;48.810;9.282;2022-12-29T07:16:23;2.83;;;1.50;;
1366;SDS011;16877;48.810;9.282;2022-12-29T07:22:34;4.60;;;1.73;;
1366;SDS011;16877;48.810;9.282;2022-12-29T07:25:02;4.23;;;2.10;;
1366;SDS011;16877;48.810;9.282;2022-12-29T07:27:45;4.00;;;1.33;;
1366;SDS011;16877;48.810;9.282;2022-12-29T07:30:15;3.80;;;1.83;;
1366;SDS011;16877;48.810;9.282;2022-12-29T07:32:54;4.30;;;1.50;;
1366;SDS011;16877;48.810;9.282;2022-12-29T07:35:24;3.77;;;1.70;;
1366;SDS011;16877;48.810;9.282;2022-12-29T07:38:10;5.13;;;1.70;;
1366;SDS011;16877;48.810;9.282;2022-12-29T07:40:39;3.87;;;1.73;;
1366;SDS011;16877;48.810;9.282;2022-12-29T07:43:07;4.80;;;1.90;;
1366;SDS011;16877;48.810;9.282;2022-12-29T07:45:49;2.77;;;1.80;;
1366;SDS011;16877;48.810;9.282;2022-12-29T07:48:22;3.33;;;1.60;;
1366;SDS011;16877;48.810;9.282;2022-12-29T07:50:54;4.27;;;1.53;;
1366;SDS011;16877;48.810;9.282;2022-12-29T07:53:24;2.77;;;1.80;;
1366;SDS011;16877;48.810;9.282;2022-12-29T07:55:54;2.73;;;1.57;;
1366;SDS011;16877;48.810;9.282;2022-12-29T07:58:23;2.73;;;1.73;;
1366;SDS011;16877;48.810;9.282;2022-12-29T08:00:57;2.63;;;1.40;;
1366;SDS011;16877;48.810;9.282;2022-12-29T08:03:25;4.60;;;1.30;;
1366;SDS011;16877;48.810;9.282;2022-12-29T08:05:53;2.90;;;1.60;;
1366;SDS011;16877;48.810;9.282;2022-12-29T08:08:39;3.27;;;1.60;;
1366;SDS011;16877;48.810;9.282;2022-12-29T08:11:09;7.00;;;2.43;;
1366;SDS011;16877;48.810;9.282;2022-12-29T08:13:40;4.17;;;2.17;;
1366;SDS011;16877;48.810;9.282;2022-12-29T08:16:08;3.00;;;1.70;;
1366;SDS011;16877;48.810;9.282;2022-12-29T08:18:41;3.77;;;1.80;;
1366;SDS011;16877;48.810;9.282;2022-12-29T08:21:13;3.87;;;1.83;;
1366;SDS011;16877;48.810;9.282;2022-12-29T08:23:57;2.80;;;1.60;;
1366;SDS011;16877;48.810;9.282;2022-12-29T08:26:28;4.20;;;2.00;;
1366;SDS011;16877;48.810;9.282;2022-12-29T08:28:56;4.13;;;1.90;;
1366;SDS011;16877;48.810;9.282;2022-12-29T08:31:28;2.90;;;1.77;;
1366;SDS011;16877;48.810;9.282;2022-12-29T08:34:10;5.10;;;1.83;;
1366;SDS011;16877;48.810;9.282;2022-12-29T08:36:40;3.50;;;1.37;;
1366;SDS011;16877;48.810;9.282;2022-12-29T08:39:15;2.53;;;1.53;;
1366;SDS011;16877;48.810;9.282;2022-12-29T08:41:43;2.43;;;1.30;;
1366;SDS011;16877;48.810;9.282;2022-12-29T08:44:11;3.83;;;1.87;;
1366;SDS011;16877;48.810;9.282;2022-12-29T08:46:42;3.63;;;1.43;;
1366;SDS011;16877;48.810;9.282;2022-12-29T08:49:10;6.30;;;2.10;;
1366;SDS011;16877;48.810;9.282;2022-12-29T08:51:38;3.47;;;1.73;;
1366;SDS011;16877;48.810;9.282;2022-12-29T08:54:10;2.90;;;1.63;;
1366;SDS011;16877;48.810;9.282;2022-12-29T08:56:41;5.23;;;2.10;;
1366;SDS011;16877;48.810;9.282;2022-12-29T08:59:14;7.90;;;1.60;;
1366;SDS011;16877;48.810;9.282;2022-12-29T09:01:42;2.90;;;1.57;;
1366;SDS011;16877;48.810;9.282;2022-12-29T09:04:32;4.20;;;1.70;;
1366;SDS011;16877;48.810;9.282;2022-12-29T09:07:00;5.43;;;1.73;;
1366;SDS011;16877;48.810;9.282;2022-12-29T09:09:31;2.60;;;1.50;;
1366;SDS011;16877;48.810;9.282;2022-12-29T09:12:02;3.30;;;1.40;;
1366;SDS011;16877;48.810;9.282;2022-12-29T09:14:29;2.87;;;1.70;;
1366;SDS011;16877;48.810;9.282;2022-12-29T09:16:58;7.57;;;1.80;;
1366;SDS011;16877;48.810;9.282;2022-12-29T09:19:43;3.87;;;2.50;;
1366;SDS011;16877;48.810;9.282;2022-12-29T09:22:12;3.50;;;1.63;;
1366;SDS011;16877;48.810;9.282;2022-12-29T09:24:41;4.30;;;1.83;;
1366;SDS011;16877;48.810;9.282;2022-12-29T09:27:09;3.23;;;1.87;;
1366;SDS011;16877;48.810;9.282;2022-12-29T09:29:37;3.83;;;1.63;;
1366;SDS011;16877;48.810;9.282;2022-12-29T09:32:04;4.17;;;2.27;;
1366;SDS011;16877;48.810;9.282;2022-12-29T09:34:32;4.57;;;2.13;;
1366;SDS011;16877;48.810;9.282;2022-12-29T09:37:04;4.73;;;1.87;;
1366;SDS011;16877;48.810;9.282;2022-12-29T09:39:32;6.57;;;2.23;;
1366;SDS011;16877;48.810;9.282;2022-12-29T09:42:02;4.73;;;2.40;;
1366;SDS011;16877;48.810;9.282;2022-12-29T09:44:42;4.63;;;2.23;;
1366;SDS011;16877;48.810;9.282;2022-12-29T09:47:18;4.03;;;2.00;;
1366;SDS011;16877;48.810;9.282;2022-12-29T09:50:02;4.23;;;1.93;;
1366;SDS011;16877;48.810;9.282;2022-12-29T09:52:32;5.37;;;2.30;;
1366;SDS011;16877;48.810;9.282;2022-12-29T09:55:17;4.70;;;2.10;;
1366;SDS011;16877;48.810;9.282;2022-12-29T09:57:52;2.87;;;1.40;;
1366;SDS011;16877;48.810;9.282;2022-12-29T10:00:37;4.10;;;1.63;;
1366;SDS011;16877;48.810;9.282;2022-12-29T10:03:22;3.80;;;1.80;;
1366;SDS011;16877;48.810;9.282;2022-12-29T10:06:06;2.80;;;1.77;;
1366;SDS011;16877;48.810;9.282;2022-12-29T10:08:55;6.83;;;2.00;;
1366;SDS011;16877;48.810;9.282;2022-12-29T10:11:31;3.37;;;1.50;;
1366;SDS011;16877;48.810;9.282;2022-12-29T10:14:20;3.00;;;1.80;;
1366;SDS011;16877;48.810;9.282;2022-12-29T10:17:02;2.90;;;1.70;;
1366;SDS011;16877;48.810;9.282;2022-12-29T10:19:44;2.60;;;2.00;;
1366;SDS011;16877;48.810;9.282;2022-12-29T10:22:27;3.60;;;1.80;;
1366;SDS011;16877;48.810;9.282;2022-12-29T10:25:06;3.63;;;1.80;;
1366;SDS011;16877;48.810;9.282;2022-12-29T10:27:39;4.13;;;2.00;;
1366;SDS011;16877;48.810;9.282;2022-12-29T10:30:10;3.70;;;2.07;;
1366;SDS011;16877;48.810;9.282;2022-12-29T10:32:41;4.17;;;1.87;;
1366;SDS011;16877;48.810;9.282;2022-12-29T10:35:18;4.10;;;2.10;;
1366;SDS011;16877;48.810;9.282;2022-12-29T10:38:01;4.50;;;2.10;;
1366;SDS011;16877;48.810;9.282;2022-12-29T10:40:33;3.17;;;1.97;;
1366;SDS011;16877;48.810;9.282;2022-12-29T10:43:06;3.50;;;1.90;;
1366;SDS011;16877;48.810;9.282;2022-12-29T10:46:05;5.33;;;2.47;;
1366;SDS011;16877;48.810;9.282;2022-12-29T10:48:36;3.07;;;1.87;;
1366;SDS011;16877;48.810;9.282;2022-12-29T10:51:15;4.20;;;2.37;;
1366;SDS011;16877;48.810;9.282;2022-12-29T10:53:50;3.40;;;2.37;;
1366;SDS011;16877;48.810;9.282;2022-12-29T10:56:25;2.60;;;1.77;;
1366;SDS011;16877;48.810;9.282;2022-12-29T10:58:58;4.77;;;2.50;;
1366;SDS011;16877;48.810;9.282;2022-12-29T11:01:36;2.70;;;1.80;;
1366;SDS011;16877;48.810;9.282;2022-12-29T11:04:14;4.50;;;2.57;;
1366;SDS011;16877;48.810;9.282;2022-12-29T11:06:52;3.13;;;2.00;;
1366;SDS011;16877;48.810;9.282;2022-12-29T11:09:21;3.43;;;1.60;;
1366;SDS011;16877;48.810;9.282;2022-12-29T11:11:55;3.80;;;1.43;;
1366;SDS011;16877;48.810;9.282;2022-12-29T11:14:26;2.80;;;1.73;;
1366;SDS011;16877;48.810;9.282;2022-12-29T11:16:59;5.50;;;1.77;;
1366;SDS011;16877;48.810;9.282;2022-12-29T11:19:28;2.97;;;1.47;;
1366;SDS011;16877;48.810;9.282;2022-12-29T11:22:13;5.03;;;2.10;;
1366;SDS011;16877;48.810;9.282;2022-12-29T11:24:47;3.10;;;1.83;;
1366;SDS011;16877;48.810;9.282;2022-12-29T11:27:17;3.20;;;2.13;;
1366;SDS011;16877;48.810;9.282;2022-12-29T11:30:01;4.30;;;1.60;;
1366;SDS011;16877;48.810;9.282;2022-12-29T11:32:30;2.60;;;1.50;;
1366;SDS011;16877;48.810;9.282;2022-12-29T11:34:58;3.10;;;1.80;;
1366;SDS011;16877;48.810;9.282;2022-12-29T11:37:28;3.43;;;1.80;;
1366;SDS011;16877;48.810;9.282;2022-12-29T11:40:00;5.07;;;1.90;;
1366;SDS011;16877;48.810;9.282;2022-12-29T11:42:32;5.07;;;2.20;;
1366;SDS011;16877;48.810;9.282;2022-12-29T11:45:04;3.30;;;2.13;;
1366;SDS011;16877;48.810;9.282;2022-12-29T11:47:36;12.80;;;5.10;;
1366;SDS011;16877;48.810;9.282;2022-12-29T11:50:19;8.73;;;4.93;;
1366;SDS011;16877;48.810;9.282;2022-12-29T11:52:49;6.77;;;3.57;;
1366;SDS011;16877;48.810;9.282;2022-12-29T11:55:18;7.43;;;3.67;;
1366;SDS011;16877;48.810;9.282;2022-12-29T11:58:05;7.30;;;4.20;;
1366;SDS011;16877;48.810;9.282;2022-12-29T12:00:35;5.63;;;3.70;;
1366;SDS011;16877;48.810;9.282;2022-12-29T12:03:22;6.93;;;3.47;;
1366;SDS011;16877;48.810;9.282;2022-12-29T12:05:51;3.77;;;2.03;;
1366;SDS011;16877;48.810;9.282;2022-12-29T12:08:26;4.83;;;1.80;;
1366;SDS011;16877;48.810;9.282;2022-12-29T12:11:04;5.07;;;1.70;;
1366;SDS011;16877;48.810;9.282;2022-12-29T12:13:55;3.90;;;1.70;;
1366;SDS011;16877;48.810;9.282;2022-12-29T12:16:27;3.47;;;1.57;;
1366;SDS011;16877;48.810;9.282;2022-12-29T12:19:02;2.40;;;1.67;;
1366;SDS011;16877;48.810;9.282;2022-12-29T12:21:40;4.23;;;1.57;;
1366;SDS011;16877;48.810;9.282;2022-12-29T12:24:20;3.30;;;1.60;;
1366;SDS011;16877;48.810;9.282;2022-12-29T12:27:00;2.77;;;1.40;;
1366;SDS011;16877;48.810;9.282;2022-12-29T12:29:36;2.53;;;1.47;;
1366;SDS011;16877;48.810;9.282;2022-12-29T12:32:10;3.57;;;2.13;;
1366;SDS011;16877;48.810;9.282;2022-12-29T12:34:43;2.30;;;1.30;;
1366;SDS011;16877;48.810;9.282;2022-12-29T12:37:15;2.40;;;1.50;;
1366;SDS011;16877;48.810;9.282;2022-12-29T12:40:25;4.70;;;1.73;;
1366;SDS011;16877;48.810;9.282;2022-12-29T12:43:34;2.80;;;1.77;;
1366;SDS011;16877;48.810;9.282;2022-12-29T12:46:10;3.33;;;1.73;;
1366;SDS011;16877;48.810;9.282;2022-12-29T12:48:52;3.30;;;1.70;;
1366;SDS011;16877;48.810;9.282;2022-12-29T12:51:35;3.23;;;1.70;;
1366;SDS011;16877;48.810;9.282;2022-12-29T12:54:28;2.50;;;1.27;;
1366;SDS011;16877;48.810;9.282;2022-12-29T12:57:08;5.03;;;1.67;;
1366;SDS011;16877;48.810;9.282;2022-12-29T12:59:42;3.40;;;1.43;;
1366;SDS011;16877;48.810;9.282;2022-12-29T13:02:26;2.97;;;1.53;;
1366;SDS011;16877;48.810;9.282;2022-12-29T13:08:03;3.50;;;1.97;;
1366;SDS011;16877;48.810;9.282;2022-12-29T13:10:46;2.57;;;1.70;;
1366;SDS011;16877;48.810;9.282;2022-12-29T13:13:42;3.10;;;2.27;;
1366;SDS011;16877;48.810;9.282;2022-12-29T13:16:34;3.10;;;1.60;;
1366;SDS011;16877;48.810;9.282;2022-12-29T13:19:25;3.10;;;1.90;;
1366;SDS011;16877;48.810;9.282;2022-12-29T13:22:00;2.63;;;1.80;;
1366;SDS011;16877;48.810;9.282;2022-12-29T13:24:38;2.97;;;1.70;;
1366;SDS011;16877;48.810;9.282;2022-12-29T13:27:15;2.53;;;1.60;;
1366;SDS011;16877;48.810;9.282;2022-12-29T13:30:02;2.80;;;1.80;;
1366;SDS011;16877;48.810;9.282;2022-12-29T13:32:39;2.87;;;1.57;;
1366;SDS011;16877;48.810;9.282;2022-12-29T13:35:23;2.60;;;1.47;;
1366;SDS011;16877;48.810;9.282;2022-12-29T13:38:00;3.30;;;1.60;;
1366;SDS011;16877;48.810;9.282;2022-12-29T13:40:50;3.87;;;1.60;;
1366;SDS011;16877;48.810;9.282;2022-12-29T13:43:21;3.47;;;1.80;;
1366;SDS011;16877;48.810;9.282;2022-12-29T13:46:06;3.47;;;1.47;;
1366;SDS011;16877;48.810;9.282;2022-12-29T13:48:41;2.90;;;1.57;;
1366;SDS011;16877;48.810;9.282;2022-12-29T13:51:13;2.83;;;1.60;;
1366;SDS011;16877;48.810;9.282;2022-12-29T13:53:46;2.67;;;1.50;;
1366;SDS011;16877;48.810;9.282;2022-12-29T13:56:31;2.23;;;1.43;;
1366;SDS011;16877;48.810;9.282;2022-12-29T13:59:03;3.30;;;1.50;;
1366;SDS011;16877;48.810;9.282;2022-12-29T14:01:39;4.80;;;1.30;;
1366;SDS011;16877;48.810;9.282;2022-12-29T14:04:10;2.70;;;1.53;;
1366;SDS011;16877;48.810;9.282;2022-12-29T14:07:01;4.30;;;1.87;;
1366;SDS011;16877;48.810;9.282;2022-12-29T14:09:41;2.20;;;1.40;;
1366;SDS011;16877;48.810;9.282;2022-12-29T14:12:21;3.30;;;1.40;;
1366;SDS011;16877;48.810;9.282;2022-12-29T14:14:55;4.53;;;1.83;;
1366;SDS011;16877;48.810;9.282;2022-12-29T14:17:32;2.90;;;2.03;;
1366;SDS011;16877;48.810;9.282;2022-12-29T14:19:59;4.20;;;2.00;;
1366;SDS011;16877;48.810;9.282;2022-12-29T14:22:33;3.20;;;2.13;;
1366;SDS011;16877;48.810;9.282;2022-12-29T14:25:01;4.33;;;1.70;;
1366;SDS011;16877;48.810;9.282;2022-12-29T14:27:51;4.33;;;2.57;;
1366;SDS011;16877;48.810;9.282;2022-12-29T14:33:14;4.90;;;2.10;;
1366;SDS011;16877;48.810;9.282;2022-12-29T14:35:42;3.57;;;1.60;;
1366;SDS011;16877;48.810;9.282;2022-12-29T14:38:15;3.90;;;1.90;;
1366;SDS011;16877;48.810;9.282;2022-12-29T14:40:45;2.20;;;1.50;;
1366;SDS011;16877;48.810;9.282;2022-12-29T14:43:17;6.93;;;1.90;;
1366;SDS011;16877;48.810;9.282;2022-12-29T14:45:54;4.90;;;1.67;;
1366;SDS011;16877;48.810;9.282;2022-12-29T14:48:32;5.03;;;2.13;;
1366;SDS011;16877;48.810;9.282;2022-12-29T14:51:16;4.27;;;1.83;;
1366;SDS011;16877;48.810;9.282;2022-12-29T14:53:53;2.67;;;1.77;;
1366;SDS011;16877;48.810;9.282;2022-12-29T14:56:24;3.30;;;1.80;;
1366;SDS011;16877;48.810;9.282;2022-12-29T14:58:58;3.13;;;1.70;;
1366;SDS011;16877;48.810;9.282;2022-12-29T15:01:37;3.60;;;1.97;;
1366;SDS011;16877;48.810;9.282;2022-12-29T15:04:25;3.17;;;2.10;;
1366;SDS011;16877;48.810;9.282;2022-12-29T15:07:13;2.60;;;1.60;;
1366;SDS011;16877;48.810;9.282;2022-12-29T15:09:42;3.17;;;1.67;;
1366;SDS011;16877;48.810;9.282;2022-12-29T15:15:10;3.30;;;1.90;;
1366;SDS011;16877;48.810;9.282;2022-12-29T15:17:45;4.73;;;2.33;;
1366;SDS011;16877;48.810;9.282;2022-12-29T15:20:17;3.03;;;2.30;;
1366;SDS011;16877;48.810;9.282;2022-12-29T15:22:53;4.90;;;2.30;;
1366;SDS011;16877;48.810;9.282;2022-12-29T15:25:22;3.40;;;2.07;;
1366;SDS011;16877;48.810;9.282;2022-12-29T15:27:51;3.27;;;2.20;;
1366;SDS011;16877;48.810;9.282;2022-12-29T15:30:23;2.90;;;2.00;;
1366;SDS011;16877;48.810;9.282;2022-12-29T15:32:55;3.30;;;1.67;;
1366;SDS011;16877;48.810;9.282;2022-12-29T15:35:25;3.63;;;1.80;;
1366;SDS011;16877;48.810;9.282;2022-12-29T15:37:55;3.30;;;2.10;;
1366;SDS011;16877;48.810;9.282;2022-12-29T15:40:24;3.30;;;2.10;;
1366;SDS011;16877;48.810;9.282;2022-12-29T15:43:01;3.37;;;1.80;;
1366;SDS011;16877;48.810;9.282;2022-12-29T15:45:43;4.00;;;1.97;;
1366;SDS011;16877;48.810;9.282;2022-12-29T15:48:16;3.10;;;1.97;;
1366;SDS011;16877;48.810;9.282;2022-12-29T15:50:54;4.60;;;2.10;;
1366;SDS011;16877;48.810;9.282;2022-12-29T15:53:22;2.93;;;2.10;;
1366;SDS011;16877;48.810;9.282;2022-12-29T15:55:53;4.57;;;2.43;;
1366;SDS011;16877;48.810;9.282;2022-12-29T15:58:27;3.80;;;1.97;;
1366;SDS011;16877;48.810;9.282;2022-12-29T16:01:16;3.77;;;1.97;;
1366;SDS011;16877;48.810;9.282;2022-12-29T16:03:45;2.30;;;1.10;;
1366;SDS011;16877;48.810;9.282;2022-12-29T16:06:27;3.47;;;1.10;;
1366;SDS011;16877;48.810;9.282;2022-12-29T16:09:01;2.10;;;0.90;;
1366;SDS011;16877;48.810;9.282;2022-12-29T16:11:31;1.97;;;0.80;;
1366;SDS011;16877;48.810;9.282;2022-12-29T16:14:06;2.63;;;1.00;;
1366;SDS011;16877;48.810;9.282;2022-12-29T16:16:37;2.70;;;1.30;;